Time,TemperatureF,DewpointF,PressureIn,WindDirection,WindDirectionDegrees,WindSpeedMPH,WindSpeedGustMPH,Humidity,HourlyPrecipIn,Conditions,Clouds,dailyrainin,SoftwareType,DateUTC
2013-10-08 00:04:00,48.0,32.2,30.15,North,-999,0.0,0.0,54,0.00,,,-99.99,FreeWX 2.04,2013-10-08 04:04:00,
2013-10-08 00:14:00,47.8,32.5,30.15,North,-999,0.0,0.0,55,0.00,,,-99.99,FreeWX 2.04,2013-10-08 04:14:00,
2013-10-08 00:24:00,47.7,32.4,30.15,North,-999,0.0,0.0,55,0.00,,,-99.99,FreeWX 2.04,2013-10-08 04:24:00,
2013-10-08 00:34:00,47.3,32.0,30.15,North,-999,0.0,0.0,55,0.00,,,-99.99,FreeWX 2.04,2013-10-08 04:34:00,
2013-10-08 00:44:00,47.3,32.4,30.15,North,-999,0.0,0.0,56,0.00,,,-99.99,FreeWX 2.04,2013-10-08 04:44:00,
2013-10-08 00:54:00,47.3,32.4,30.15,North,-999,0.0,0.0,56,0.00,,,-99.99,FreeWX 2.04,2013-10-08 04:54:00,
2013-10-08 01:04:00,46.9,32.0,30.15,North,-999,0.0,0.0,56,0.00,,,-99.99,FreeWX 2.04,2013-10-08 05:04:00,
2013-10-08 01:14:00,46.6,32.2,30.15,North,-999,0.0,0.0,57,0.00,,,-99.99,FreeWX 2.04,2013-10-08 05:14:00,
2013-10-08 01:24:00,46.4,32.0,30.15,North,-999,0.0,0.0,57,0.00,,,-99.99,FreeWX 2.04,2013-10-08 05:24:00,
2013-10-08 01:34:00,46.4,32.4,30.15,North,-999,0.0,0.0,58,0.00,,,-99.99,FreeWX 2.04,2013-10-08 05:34:00,
2013-10-08 01:44:00,46.0,32.2,30.15,North,-999,0.0,0.0,58,0.00,,,-99.99,FreeWX 2.04,2013-10-08 05:44:00,
2013-10-08 01:54:00,46.0,32.2,30.15,North,-999,0.0,0.0,58,0.00,,,-99.99,FreeWX 2.04,2013-10-08 05:54:00,
2013-10-08 02:04:00,46.0,32.5,30.15,North,-999,0.0,0.0,59,0.00,,,-99.99,FreeWX 2.04,2013-10-08 06:04:00,
2013-10-08 02:14:00,45.9,32.4,30.15,North,-999,0.0,0.0,59,0.00,,,-99.99,FreeWX 2.04,2013-10-08 06:14:00,
2013-10-08 02:24:00,45.9,32.4,30.15,North,-999,0.0,0.0,59,0.00,,,-99.99,FreeWX 2.04,2013-10-08 06:24:00,
2013-10-08 02:34:00,45.7,32.2,30.15,North,-999,0.0,0.0,59,0.00,,,-99.99,FreeWX 2.04,2013-10-08 06:34:00,
2013-10-08 02:44:00,45.3,32.2,30.15,North,-999,0.0,0.0,60,0.00,,,-99.99,FreeWX 2.04,2013-10-08 06:44:00,
2013-10-08 02:54:00,45.3,32.2,30.15,North,-999,0.0,0.0,60,0.00,,,-99.99,FreeWX 2.04,2013-10-08 06:54:00,
2013-10-08 03:04:00,45.3,32.2,30.15,North,-999,0.0,0.0,60,0.00,,,-99.99,FreeWX 2.04,2013-10-08 07:04:00,
2013-10-08 03:14:00,45.1,32.2,30.15,North,-999,0.0,0.0,60,0.00,,,-99.99,FreeWX 2.04,2013-10-08 07:14:00,
2013-10-08 03:24:00,45.1,32.2,30.15,North,-999,0.0,0.0,60,0.00,,,-99.99,FreeWX 2.04,2013-10-08 07:24:00,
2013-10-08 03:34:00,45.1,32.2,30.15,North,-999,0.0,0.0,60,0.00,,,-99.99,FreeWX 2.04,2013-10-08 07:34:00,
2013-10-08 03:44:00,45.1,32.2,30.15,North,-999,0.0,0.0,60,0.00,,,-99.99,FreeWX 2.04,2013-10-08 07:44:00,
2013-10-08 03:54:00,44.8,31.8,30.15,North,-999,0.0,0.0,60,0.00,,,-99.99,FreeWX 2.04,2013-10-08 07:54:00,
2013-10-08 04:04:00,44.6,31.6,30.15,North,-999,0.0,0.0,60,0.00,,,-99.99,FreeWX 2.04,2013-10-08 08:04:00,
2013-10-08 04:14:00,44.2,31.3,30.15,North,-999,0.0,0.0,60,0.00,,,-99.99,FreeWX 2.04,2013-10-08 08:14:00,
2013-10-08 04:24:00,44.2,31.3,30.15,North,-999,0.0,0.0,60,0.00,,,-99.99,FreeWX 2.04,2013-10-08 08:24:00,
2013-10-08 04:34:00,44.1,31.1,30.15,North,-999,0.0,0.0,60,0.00,,,-99.99,FreeWX 2.04,2013-10-08 08:34:00,
2013-10-08 04:44:00,43.7,30.7,30.15,North,-999,0.0,0.0,60,0.00,,,-99.99,FreeWX 2.04,2013-10-08 08:44:00,
2013-10-08 04:54:00,43.7,31.1,30.15,North,-999,0.0,0.0,61,0.00,,,-99.99,FreeWX 2.04,2013-10-08 08:54:00,
2013-10-08 05:04:00,43.5,30.9,30.15,North,-999,0.0,0.0,61,0.00,,,-99.99,FreeWX 2.04,2013-10-08 09:04:00,
2013-10-08 05:14:00,43.7,31.1,30.18,North,-999,0.0,0.0,61,0.00,,,-99.99,FreeWX 2.04,2013-10-08 09:14:00,
2013-10-08 05:24:00,43.7,31.1,30.18,North,-999,0.0,0.0,61,0.00,,,-99.99,FreeWX 2.04,2013-10-08 09:24:00,
2013-10-08 05:34:00,43.7,31.5,30.18,North,-999,0.0,0.0,62,0.00,,,-99.99,FreeWX 2.04,2013-10-08 09:34:00,
2013-10-08 05:44:00,43.5,31.5,30.18,North,-999,0.0,0.0,62,0.00,,,-99.99,FreeWX 2.04,2013-10-08 09:44:00,
2013-10-08 05:54:00,43.3,31.3,30.18,North,-999,0.0,0.0,62,0.00,,,-99.99,FreeWX 2.04,2013-10-08 09:54:00,
2013-10-08 06:04:00,43.3,31.3,30.18,North,-999,0.0,0.0,62,0.00,,,-99.99,FreeWX 2.04,2013-10-08 10:04:00,
2013-10-08 06:14:00,43.2,31.5,30.18,North,-999,0.0,0.0,63,0.00,,,-99.99,FreeWX 2.04,2013-10-08 10:14:00,
2013-10-08 06:24:00,43.0,31.3,30.18,North,-999,0.0,0.0,63,0.00,,,-99.99,FreeWX 2.04,2013-10-08 10:24:00,
2013-10-08 06:34:00,42.8,31.1,30.18,North,-999,0.0,0.0,63,0.00,,,-99.99,FreeWX 2.04,2013-10-08 10:34:00,
2013-10-08 06:44:00,43.0,31.6,30.21,North,-999,0.0,0.0,64,0.00,,,-99.99,FreeWX 2.04,2013-10-08 10:44:00,
2013-10-08 06:54:00,43.0,31.6,30.21,North,-999,0.0,0.0,64,0.00,,,-99.99,FreeWX 2.04,2013-10-08 10:54:00,
2013-10-08 07:04:00,42.8,31.5,30.21,North,-999,0.0,0.0,64,0.00,,,-99.99,FreeWX 2.04,2013-10-08 11:04:00,
2013-10-08 07:14:00,42.4,30.7,30.21,North,-999,0.0,0.0,63,0.00,,,-99.99,FreeWX 2.04,2013-10-08 11:14:00,
2013-10-08 07:24:00,42.3,30.6,30.21,North,-999,0.0,0.0,63,0.00,,,-99.99,FreeWX 2.04,2013-10-08 11:24:00,
2013-10-08 07:34:00,42.3,30.6,30.21,North,-999,0.0,0.0,63,0.00,,,-99.99,FreeWX 2.04,2013-10-08 11:34:00,
2013-10-08 07:44:00,42.1,30.4,30.21,North,-999,0.0,0.0,63,0.00,,,-99.99,FreeWX 2.04,2013-10-08 11:44:00,
2013-10-08 07:54:00,42.1,30.4,30.21,North,-999,0.0,0.0,63,0.00,,,-99.99,FreeWX 2.04,2013-10-08 11:54:00,
2013-10-08 08:04:00,41.9,30.2,30.21,North,-999,0.0,0.0,63,0.00,,,-99.99,FreeWX 2.04,2013-10-08 12:04:00,
2013-10-08 08:14:00,42.1,30.4,30.24,North,-999,0.0,0.0,63,0.00,,,-99.99,FreeWX 2.04,2013-10-08 12:14:00,
2013-10-08 08:24:00,42.4,31.1,30.24,North,-999,0.0,0.0,64,0.00,,,-99.99,FreeWX 2.04,2013-10-08 12:24:00,
2013-10-08 08:34:00,43.0,32.0,30.24,North,-999,0.0,0.0,65,0.00,,,-99.99,FreeWX 2.04,2013-10-08 12:34:00,
2013-10-08 08:44:00,44.1,33.4,30.24,North,-999,0.0,0.0,66,0.00,,,-99.99,FreeWX 2.04,2013-10-08 12:44:00,
2013-10-08 08:54:00,45.1,34.5,30.24,North,-999,0.0,0.0,66,0.00,,,-99.99,FreeWX 2.04,2013-10-08 12:54:00,
2013-10-08 09:04:00,46.2,36.0,30.24,North,-999,0.0,0.0,67,0.00,,,-99.99,FreeWX 2.04,2013-10-08 13:04:00,
2013-10-08 09:14:00,47.3,36.9,30.24,North,-999,0.0,0.0,67,0.00,,,-99.99,FreeWX 2.04,2013-10-08 13:14:00,
2013-10-08 09:24:00,48.6,38.1,30.24,North,-999,0.0,0.0,67,0.00,,,-99.99,FreeWX 2.04,2013-10-08 13:24:00,
2013-10-08 09:34:00,50.2,40.1,30.24,North,-999,0.0,0.0,68,0.00,,,-99.99,FreeWX 2.04,2013-10-08 13:34:00,
2013-10-08 09:44:00,51.6,41.0,30.24,North,-999,0.0,0.0,67,0.00,,,-99.99,FreeWX 2.04,2013-10-08 13:44:00,
2013-10-08 09:54:00,53.1,38.7,30.27,North,-999,0.0,0.0,58,0.00,,,-99.99,FreeWX 2.04,2013-10-08 13:54:00,
2013-10-08 10:04:00,54.0,35.8,30.27,North,-999,0.0,0.0,50,0.00,,,-99.99,FreeWX 2.04,2013-10-08 14:04:00,
2013-10-08 10:14:00,55.6,37.2,30.27,North,-999,0.0,0.0,50,0.00,,,-99.99,FreeWX 2.04,2013-10-08 14:14:00,
2013-10-08 10:24:00,55.4,34.3,30.27,North,-999,0.0,0.0,45,0.00,,,-99.99,FreeWX 2.04,2013-10-08 14:24:00,
2013-10-08 10:34:00,56.8,34.0,30.27,North,-999,0.0,0.0,42,0.00,,,-99.99,FreeWX 2.04,2013-10-08 14:34:00,
2013-10-08 10:44:00,58.5,32.4,30.27,North,-999,0.0,4.9,37,0.00,,,-99.99,FreeWX 2.04,2013-10-08 14:44:00,
2013-10-08 10:54:00,58.6,31.8,30.27,North,-999,0.0,4.0,36,0.00,,,-99.99,FreeWX 2.04,2013-10-08 14:54:00,
2013-10-08 11:04:00,59.5,31.1,30.27,North,-999,0.0,4.5,34,0.00,,,-99.99,FreeWX 2.04,2013-10-08 15:04:00,
2013-10-08 11:14:00,61.0,31.6,30.27,North,-999,0.0,6.3,33,0.00,,,-99.99,FreeWX 2.04,2013-10-08 15:14:00,
2013-10-08 11:24:00,61.7,28.2,30.27,North,-999,0.0,9.6,28,0.00,,,-99.99,FreeWX 2.04,2013-10-08 15:24:00,
2013-10-08 11:34:00,63.0,26.6,30.27,North,-999,0.0,4.9,25,0.00,,,-99.99,FreeWX 2.04,2013-10-08 15:34:00,
2013-10-08 11:44:00,63.9,25.3,30.24,North,-999,0.0,3.1,23,0.00,,,-99.99,FreeWX 2.04,2013-10-08 15:44:00,
2013-10-08 11:54:00,63.7,25.2,30.24,North,-999,0.0,8.3,23,0.00,,,-99.99,FreeWX 2.04,2013-10-08 15:54:00,
2013-10-08 12:04:00,63.0,25.7,30.24,North,-999,0.0,2.7,24,0.00,,,-99.99,FreeWX 2.04,2013-10-08 16:04:00,
2013-10-08 12:14:00,62.6,24.3,30.24,North,-999,0.0,6.3,23,0.00,,,-99.99,FreeWX 2.04,2013-10-08 16:14:00,
2013-10-08 12:24:00,64.8,22.8,30.24,North,-999,0.0,4.9,20,0.00,,,-99.99,FreeWX 2.04,2013-10-08 16:24:00,
2013-10-08 12:34:00,65.7,23.5,30.24,North,-999,0.0,3.6,20,0.00,,,-99.99,FreeWX 2.04,2013-10-08 16:34:00,
2013-10-08 12:44:00,64.4,22.5,30.24,North,-999,0.0,5.4,20,0.00,,,-99.99,FreeWX 2.04,2013-10-08 16:44:00,
2013-10-08 12:54:00,64.4,22.5,30.24,North,-999,0.0,4.0,20,0.00,,,-99.99,FreeWX 2.04,2013-10-08 16:54:00,
2013-10-08 13:04:00,65.7,19.8,30.24,North,-999,0.0,4.9,17,0.00,,,-99.99,FreeWX 2.04,2013-10-08 17:04:00,
2013-10-08 13:14:00,65.8,19.8,30.24,North,-999,0.0,3.6,17,0.00,,,-99.99,FreeWX 2.04,2013-10-08 17:14:00,
2013-10-08 13:24:00,66.2,20.1,30.21,North,-999,0.0,2.7,17,0.00,,,-99.99,FreeWX 2.04,2013-10-08 17:24:00,
2013-10-08 13:34:00,66.2,20.1,30.21,North,-999,0.0,0.0,17,0.00,,,-99.99,FreeWX 2.04,2013-10-08 17:34:00,
2013-10-08 13:44:00,68.7,22.1,30.21,North,-999,0.0,0.0,17,0.00,,,-99.99,FreeWX 2.04,2013-10-08 17:44:00,
2013-10-08 13:54:00,69.3,22.6,30.21,North,-999,0.0,5.8,17,0.00,,,-99.99,FreeWX 2.04,2013-10-08 17:54:00,
2013-10-08 14:04:00,67.6,21.2,30.21,North,-999,0.0,4.5,17,0.00,,,-99.99,FreeWX 2.04,2013-10-08 18:04:00,
2013-10-08 14:14:00,69.3,22.6,30.21,North,-999,0.0,4.9,17,0.00,,,-99.99,FreeWX 2.04,2013-10-08 18:14:00,
2013-10-08 14:24:00,68.4,21.9,30.21,North,-999,0.0,3.6,17,0.00,,,-99.99,FreeWX 2.04,2013-10-08 18:24:00,
2013-10-08 14:35:00,68.5,21.9,30.21,North,-999,0.0,0.0,17,0.00,,,-99.99,FreeWX 2.04,2013-10-08 18:35:00,
2013-10-08 14:45:00,68.5,21.9,30.18,North,-999,0.0,5.4,17,0.00,,,-99.99,FreeWX 2.04,2013-10-08 18:45:00,
2013-10-08 14:55:00,69.8,23.0,30.18,North,-999,0.0,3.6,17,0.00,,,-99.99,FreeWX 2.04,2013-10-08 18:55:00,
2013-10-08 15:05:00,70.3,23.5,30.18,North,-999,0.0,0.0,17,0.00,,,-99.99,FreeWX 2.04,2013-10-08 19:05:00,
2013-10-08 15:15:00,69.4,22.8,30.18,North,-999,0.0,0.0,17,0.00,,,-99.99,FreeWX 2.04,2013-10-08 19:15:00,
2013-10-08 15:25:00,70.0,23.2,30.18,North,-999,0.0,0.0,17,0.00,,,-99.99,FreeWX 2.04,2013-10-08 19:25:00,
2013-10-08 15:35:00,68.0,21.6,30.18,North,-999,0.0,0.0,17,0.00,,,-99.99,FreeWX 2.04,2013-10-08 19:35:00,
2013-10-08 15:45:00,69.6,22.8,30.18,North,-999,0.0,6.3,17,0.00,,,-99.99,FreeWX 2.04,2013-10-08 19:45:00,
2013-10-08 15:55:00,69.8,23.0,30.18,North,-999,0.0,0.0,17,0.00,,,-99.99,FreeWX 2.04,2013-10-08 19:55:00,
2013-10-08 16:05:00,70.0,23.2,30.18,North,-999,0.0,0.0,17,0.00,,,-99.99,FreeWX 2.04,2013-10-08 20:05:00,
2013-10-08 16:15:00,69.8,23.0,30.18,North,-999,0.0,5.4,17,0.00,,,-99.99,FreeWX 2.04,2013-10-08 20:15:00,
2013-10-08 16:25:00,68.5,21.9,30.18,North,-999,0.0,0.0,17,0.00,,,-99.99,FreeWX 2.04,2013-10-08 20:25:00,
2013-10-08 16:35:00,68.7,22.1,30.18,North,-999,0.0,0.0,17,0.00,,,-99.99,FreeWX 2.04,2013-10-08 20:35:00,
2013-10-08 16:45:00,68.5,21.9,30.18,North,-999,0.0,0.0,17,0.00,,,-99.99,FreeWX 2.04,2013-10-08 20:45:00,
2013-10-08 16:55:00,66.7,20.5,30.18,North,-999,0.0,5.4,17,0.00,,,-99.99,FreeWX 2.04,2013-10-08 20:55:00,
2013-10-08 17:05:00,65.8,19.8,30.18,North,-999,0.0,0.0,17,0.00,,,-99.99,FreeWX 2.04,2013-10-08 21:05:00,
2013-10-08 17:15:00,65.5,19.6,30.18,North,-999,0.0,2.7,17,0.00,,,-99.99,FreeWX 2.04,2013-10-08 21:15:00,
2013-10-08 17:25:00,65.3,20.7,30.18,North,-999,0.0,0.0,18,0.00,,,-99.99,FreeWX 2.04,2013-10-08 21:25:00,
2013-10-08 17:35:00,65.3,19.4,30.18,North,-999,0.0,0.0,17,0.00,,,-99.99,FreeWX 2.04,2013-10-08 21:35:00,
2013-10-08 17:45:00,64.9,20.5,30.18,North,-999,0.0,2.7,18,0.00,,,-99.99,FreeWX 2.04,2013-10-08 21:45:00,
2013-10-08 17:55:00,64.6,20.1,30.18,North,-999,0.0,0.0,18,0.00,,,-99.99,FreeWX 2.04,2013-10-08 21:55:00,
2013-10-08 18:05:00,64.0,19.8,30.18,North,-999,0.0,0.0,18,0.00,,,-99.99,FreeWX 2.04,2013-10-08 22:05:00,
2013-10-08 18:15:00,63.7,19.4,30.18,North,-999,0.0,0.0,18,0.00,,,-99.99,FreeWX 2.04,2013-10-08 22:15:00,
2013-10-08 18:25:00,63.7,21.9,30.18,North,-999,0.0,0.0,20,0.00,,,-99.99,FreeWX 2.04,2013-10-08 22:25:00,
2013-10-08 18:35:00,63.3,22.6,30.18,North,-999,0.0,0.0,21,0.00,,,-99.99,FreeWX 2.04,2013-10-08 22:35:00,
2013-10-08 18:45:00,62.6,25.3,30.18,North,-999,0.0,0.0,24,0.00,,,-99.99,FreeWX 2.04,2013-10-08 22:45:00,
2013-10-08 18:55:00,61.7,25.5,30.18,North,-999,0.0,0.0,25,0.00,,,-99.99,FreeWX 2.04,2013-10-08 22:55:00,
2013-10-08 19:05:00,61.2,25.0,30.18,North,-999,0.0,0.0,25,0.00,,,-99.99,FreeWX 2.04,2013-10-08 23:05:00,
2013-10-08 19:15:00,60.4,24.4,30.18,North,-999,0.0,0.0,25,0.00,,,-99.99,FreeWX 2.04,2013-10-08 23:15:00,
2013-10-08 19:25:00,59.7,24.8,30.18,North,-999,0.0,0.0,26,0.00,,,-99.99,FreeWX 2.04,2013-10-08 23:25:00,
2013-10-08 19:35:00,58.8,25.9,30.18,North,-999,0.0,0.0,28,0.00,,,-99.99,FreeWX 2.04,2013-10-08 23:35:00,
2013-10-08 19:45:00,58.3,26.2,30.18,North,-999,0.0,0.0,29,0.00,,,-99.99,FreeWX 2.04,2013-10-08 23:45:00,
2013-10-08 19:55:00,57.7,26.6,30.18,North,-999,0.0,0.0,30,0.00,,,-99.99,FreeWX 2.04,2013-10-08 23:55:00,
2013-10-08 20:05:00,57.0,28.2,30.18,North,-999,0.0,0.0,33,0.00,,,-99.99,FreeWX 2.04,2013-10-09 00:05:00,
2013-10-08 20:15:00,56.3,28.9,30.18,North,-999,0.0,0.0,35,0.00,,,-99.99,FreeWX 2.04,2013-10-09 00:15:00,
2013-10-08 20:25:00,55.9,29.3,30.18,North,-999,0.0,0.0,36,0.00,,,-99.99,FreeWX 2.04,2013-10-09 00:25:00,
2013-10-08 20:35:00,55.2,28.8,30.18,North,-999,0.0,0.0,36,0.00,,,-99.99,FreeWX 2.04,2013-10-09 00:35:00,
2013-10-08 20:45:00,54.5,28.8,30.18,North,-999,0.0,0.0,37,0.00,,,-99.99,FreeWX 2.04,2013-10-09 00:45:00,
2013-10-08 20:55:00,53.8,28.8,30.18,North,-999,0.0,0.0,38,0.00,,,-99.99,FreeWX 2.04,2013-10-09 00:55:00,
2013-10-08 21:05:00,53.4,29.7,30.18,North,-999,0.0,0.0,40,0.00,,,-99.99,FreeWX 2.04,2013-10-09 01:05:00,
2013-10-08 21:15:00,53.1,30.0,30.18,North,-999,0.0,0.0,41,0.00,,,-99.99,FreeWX 2.04,2013-10-09 01:15:00,
2013-10-08 21:25:00,52.7,30.2,30.18,North,-999,0.0,0.0,42,0.00,,,-99.99,FreeWX 2.04,2013-10-09 01:25:00,
2013-10-08 21:35:00,52.3,31.1,30.18,North,-999,0.0,0.0,44,0.00,,,-99.99,FreeWX 2.04,2013-10-09 01:35:00,
2013-10-08 21:45:00,52.2,31.5,30.18,North,-999,0.0,0.0,45,0.00,,,-99.99,FreeWX 2.04,2013-10-09 01:45:00,
2013-10-08 21:55:00,51.6,31.5,30.21,North,-999,0.0,0.0,46,0.00,,,-99.99,FreeWX 2.04,2013-10-09 01:55:00,
2013-10-08 22:05:00,51.3,31.3,30.21,North,-999,0.0,0.0,46,0.00,,,-99.99,FreeWX 2.04,2013-10-09 02:05:00,
2013-10-08 22:15:00,50.7,31.3,30.21,North,-999,0.0,0.0,47,0.00,,,-99.99,FreeWX 2.04,2013-10-09 02:15:00,
2013-10-08 22:25:00,50.5,31.6,30.21,North,-999,0.0,0.0,48,0.00,,,-99.99,FreeWX 2.04,2013-10-09 02:25:00,
2013-10-08 22:35:00,50.4,32.0,30.21,North,-999,0.0,0.0,49,0.00,,,-99.99,FreeWX 2.04,2013-10-09 02:35:00,
2013-10-08 22:45:00,50.0,31.6,30.21,North,-999,0.0,0.0,49,0.00,,,-99.99,FreeWX 2.04,2013-10-09 02:45:00,
2013-10-08 22:55:00,50.0,32.2,30.21,North,-999,0.0,0.0,50,0.00,,,-99.99,FreeWX 2.04,2013-10-09 02:55:00,
2013-10-08 23:05:00,49.8,32.0,30.21,North,-999,0.0,0.0,50,0.00,,,-99.99,FreeWX 2.04,2013-10-09 03:05:00,
2013-10-08 23:15:00,49.3,31.5,30.21,North,-999,0.0,0.0,50,0.00,,,-99.99,FreeWX 2.04,2013-10-09 03:15:00,
2013-10-08 23:25:00,49.3,32.0,30.21,North,-999,0.0,0.0,51,0.00,,,-99.99,FreeWX 2.04,2013-10-09 03:25:00,
2013-10-08 23:35:00,48.7,31.8,30.21,North,-999,0.0,0.0,52,0.00,,,-99.99,FreeWX 2.04,2013-10-09 03:35:00,
2013-10-08 23:45:00,48.7,31.8,30.21,North,-999,0.0,0.0,52,0.00,,,-99.99,FreeWX 2.04,2013-10-09 03:45:00,
2013-10-08 23:55:00,48.6,31.8,30.21,North,-999,0.0,0.0,52,0.00,,,-99.99,FreeWX 2.04,2013-10-09 03:55:00,